createdAt,value
2022-12-16T00:00:27.425Z,31.03
2022-12-16T00:02:56.180Z,31.70
2022-12-16T00:05:24.858Z,31.80
2022-12-16T00:07:53.454Z,29.83
2022-12-16T00:10:23.791Z,34.47
2022-12-16T00:12:53.915Z,32.70
2022-12-16T00:15:23.689Z,33.57
2022-12-16T00:17:52.292Z,33.13
2022-12-16T00:20:20.870Z,32.53
2022-12-16T00:22:49.451Z,30.27
2022-12-16T00:25:18.334Z,31.53
2022-12-16T00:27:46.955Z,30.63
2022-12-16T00:30:17.424Z,26.93
2022-12-16T00:32:45.997Z,28.67
2022-12-16T00:35:14.723Z,28.97
2022-12-16T00:37:43.565Z,26.53
2022-12-16T00:40:13.378Z,27.30
2022-12-16T00:42:42.070Z,24.73
2022-12-16T00:45:11.852Z,25.13
2022-12-16T00:47:43.917Z,23.20
2022-12-16T00:50:13.043Z,23.00
2022-12-16T00:52:41.737Z,22.63
2022-12-16T00:55:12.145Z,23.33
2022-12-16T00:57:41.150Z,23.03
2022-12-16T01:00:13.593Z,22.10
2022-12-16T01:02:44.791Z,24.03
2022-12-16T01:05:17.342Z,23.57
2022-12-16T01:07:46.284Z,24.37
2022-12-16T01:10:15.850Z,25.87
2022-12-16T01:12:44.523Z,26.67
2022-12-16T01:15:15.094Z,21.63
2022-12-16T01:17:45.702Z,24.67
2022-12-16T01:20:14.957Z,21.00
2022-12-16T01:22:43.796Z,19.20
2022-12-16T01:25:14.190Z,19.07
2022-12-16T01:27:42.950Z,18.83
2022-12-16T01:30:13.416Z,16.13
2022-12-16T01:32:42.224Z,17.27
2022-12-16T01:35:43.925Z,16.77
2022-12-16T01:38:02.045Z,15.53
2022-12-16T01:40:31.976Z,18.30
2022-12-16T01:43:00.602Z,18.70
2022-12-16T01:45:35.937Z,20.97
2022-12-16T01:48:20.674Z,20.50
2022-12-16T01:50:54.011Z,21.20
2022-12-16T01:53:23.627Z,20.27
2022-12-16T01:55:56.773Z,21.77
2022-12-16T01:58:31.226Z,25.00
2022-12-16T02:01:00.936Z,26.10
2022-12-16T02:03:36.752Z,23.83
2022-12-16T02:06:08.967Z,25.67
2022-12-16T02:08:37.747Z,27.50
2022-12-16T02:11:43.702Z,26.97
2022-12-16T02:15:18.556Z,29.93
2022-12-16T02:17:59.531Z,30.97
2022-12-16T02:21:21.562Z,33.37
2022-12-16T02:24:36.830Z,35.07
2022-12-16T02:27:50.919Z,34.53
2022-12-16T02:31:01.933Z,36.37
2022-12-16T02:33:48.206Z,39.27
2022-12-16T02:36:43.351Z,36.80
2022-12-16T02:39:21.052Z,39.27
2022-12-16T02:41:58.146Z,37.07
2022-12-16T02:44:46.183Z,35.00
2022-12-16T02:47:16.294Z,37.00
2022-12-16T02:49:51.792Z,36.90
2022-12-16T02:52:24.567Z,35.63
2022-12-16T02:54:59.035Z,32.97
2022-12-16T02:58:05.027Z,33.43
2022-12-16T03:00:49.259Z,29.70
2022-12-16T03:03:27.842Z,25.00
2022-12-16T03:05:59.155Z,28.40
2022-12-16T03:08:35.233Z,23.77
2022-12-16T03:11:08.681Z,22.43
2022-12-16T03:13:43.282Z,19.10
2022-12-16T03:16:18.619Z,17.70
2022-12-16T03:18:55.660Z,15.70
2022-12-16T03:21:30.329Z,15.17
2022-12-16T03:24:04.065Z,13.97
2022-12-16T03:26:39.169Z,14.00
2022-12-16T03:29:15.916Z,13.00
2022-12-16T03:31:50.944Z,13.50
2022-12-16T03:34:33.986Z,12.77
2022-12-16T03:37:08.906Z,11.70
2022-12-16T03:39:45.029Z,12.23
2022-12-16T03:42:17.309Z,12.93
2022-12-16T03:44:47.787Z,11.63
2022-12-16T03:47:23.089Z,11.07
2022-12-16T03:49:53.953Z,11.27
2022-12-16T03:52:22.599Z,10.70
2022-12-16T03:54:51.186Z,10.23
2022-12-16T03:57:20.176Z,10.40
2022-12-16T03:59:48.788Z,10.13
2022-12-16T04:02:17.547Z,9.13
2022-12-16T04:04:46.455Z,9.63
2022-12-16T04:07:22.337Z,9.37
2022-12-16T04:09:53.100Z,9.50
2022-12-16T04:12:40.083Z,8.87
2022-12-16T04:15:32.745Z,8.23
2022-12-16T04:18:19.446Z,8.43
2022-12-16T04:21:11.991Z,8.53
2022-12-16T04:24:05.910Z,8.20
2022-12-16T04:26:55.960Z,7.60
2022-12-16T04:29:25.111Z,7.83
2022-12-16T04:31:54.430Z,7.67
2022-12-16T04:34:25.915Z,8.20
2022-12-16T04:37:12.496Z,7.50
2022-12-16T04:39:59.950Z,8.43
2022-12-16T04:42:46.456Z,8.33
2022-12-16T04:45:33.046Z,8.03
2022-12-16T04:48:19.120Z,8.73
2022-12-16T04:51:05.899Z,10.20
2022-12-16T04:53:51.937Z,13.13
2022-12-16T04:56:39.466Z,25.00
2022-12-16T04:59:25.460Z,63.60
2022-12-16T05:02:11.708Z,92.57
2022-12-16T05:04:57.793Z,19.90
2022-12-16T05:07:44.450Z,15.10
2022-12-16T05:10:30.265Z,32.17
2022-12-16T05:13:17.577Z,13.70
2022-12-16T05:16:03.687Z,14.03
2022-12-16T05:18:49.534Z,14.60
2022-12-16T05:21:35.571Z,14.40
2022-12-16T05:24:21.511Z,14.50
2022-12-16T05:27:12.978Z,15.63
2022-12-16T05:30:00.117Z,16.87
2022-12-16T05:32:54.664Z,19.33
2022-12-16T05:35:41.678Z,17.23
2022-12-16T05:38:27.562Z,20.53
2022-12-16T05:41:19.054Z,22.93
2022-12-16T05:44:05.296Z,37.83
2022-12-16T05:46:52.734Z,18.60
2022-12-16T05:49:39.036Z,17.83
2022-12-16T05:52:25.293Z,36.07
2022-12-16T05:55:11.266Z,22.03
2022-12-16T05:57:57.904Z,17.80
2022-12-16T06:00:44.006Z,21.50
2022-12-16T06:03:34.186Z,22.43
2022-12-16T06:06:20.236Z,22.00
2022-12-16T06:09:20.677Z,22.80
2022-12-16T06:12:06.609Z,20.53
2022-12-16T06:14:52.493Z,21.70
2022-12-16T06:17:40.434Z,25.37
2022-12-16T06:20:29.274Z,23.13
2022-12-16T06:23:15.303Z,24.07
2022-12-16T06:26:02.015Z,23.30
2022-12-16T06:28:47.851Z,25.53
2022-12-16T06:31:34.300Z,21.17
2022-12-16T06:34:20.910Z,23.93
2022-12-16T06:37:08.501Z,19.60
2022-12-16T06:39:54.574Z,22.07
2022-12-16T06:42:40.527Z,20.77
2022-12-16T06:45:32.884Z,20.53
2022-12-16T06:48:20.321Z,18.83
2022-12-16T06:51:06.337Z,20.93
2022-12-16T06:53:53.336Z,21.70
2022-12-16T06:56:39.401Z,21.33
2022-12-16T06:59:25.239Z,23.03
2022-12-16T07:02:11.251Z,20.17
2022-12-16T07:04:57.287Z,19.67
2022-12-16T07:07:43.582Z,17.00
2022-12-16T07:10:31.145Z,16.90
2022-12-16T07:13:23.792Z,16.60
2022-12-16T07:16:09.865Z,17.27
2022-12-16T07:18:55.686Z,19.77
2022-12-16T07:21:41.730Z,19.17
2022-12-16T07:24:27.886Z,17.67
2022-12-16T07:27:15.449Z,16.27
2022-12-16T07:30:01.558Z,16.33
2022-12-16T07:32:47.632Z,13.63
2022-12-16T07:35:33.937Z,15.73
2022-12-16T07:38:19.713Z,16.93
2022-12-16T07:41:07.610Z,19.53
2022-12-16T07:43:55.009Z,16.33
2022-12-16T07:46:40.784Z,16.67
2022-12-16T07:49:26.690Z,14.50
2022-12-16T07:52:12.907Z,13.13
2022-12-16T07:54:58.970Z,13.17
2022-12-16T07:57:44.880Z,14.10
2022-12-16T08:00:33.117Z,12.97
2022-12-16T08:03:19.016Z,10.47
2022-12-16T08:06:05.082Z,9.60
2022-12-16T08:08:51.245Z,8.87
2022-12-16T08:11:36.942Z,7.27
2022-12-16T08:14:22.958Z,7.33
2022-12-16T08:17:19.057Z,6.30
2022-12-16T08:20:05.190Z,6.70
2022-12-16T08:22:47.697Z,6.30
2022-12-16T08:25:33.811Z,6.37
2022-12-16T08:28:19.848Z,7.53
2022-12-16T08:31:09.386Z,8.23
2022-12-16T08:33:57.059Z,8.97
2022-12-16T08:36:43.421Z,8.87
2022-12-16T08:39:29.488Z,10.77
2022-12-16T08:42:15.475Z,11.80
2022-12-16T08:45:00.766Z,9.60
2022-12-16T08:47:46.899Z,9.73
2022-12-16T08:50:34.797Z,9.20
2022-12-16T08:53:20.886Z,11.80
2022-12-16T08:56:06.704Z,9.00
2022-12-16T08:58:52.004Z,8.77
2022-12-16T09:01:38.528Z,8.20
2022-12-16T09:04:24.713Z,8.40
2022-12-16T09:07:12.100Z,6.70
2022-12-16T09:09:58.325Z,5.87
2022-12-16T09:12:44.372Z,5.63
2022-12-16T09:15:30.510Z,5.37
2022-12-16T09:18:16.405Z,5.37
2022-12-16T09:21:02.754Z,4.80
2022-12-16T09:23:50.281Z,5.27
2022-12-16T09:26:36.976Z,4.83
2022-12-16T09:29:23.218Z,3.73
2022-12-16T09:32:09.528Z,3.60
2022-12-16T09:34:55.934Z,4.03
2022-12-16T09:37:42.071Z,3.37
2022-12-16T09:40:35.274Z,3.70
2022-12-16T09:43:46.060Z,3.47
2022-12-16T09:46:43.697Z,4.73
2022-12-16T09:49:44.291Z,4.57
2022-12-16T09:52:37.463Z,4.87
2022-12-16T09:55:34.892Z,5.10
2022-12-16T09:58:22.924Z,5.63
2022-12-16T10:01:09.439Z,6.20
2022-12-16T10:03:58.550Z,6.37
2022-12-16T10:06:59.402Z,8.37
2022-12-16T10:09:53.614Z,7.43
2022-12-16T10:12:56.886Z,7.93
2022-12-16T10:15:58.283Z,10.53
2022-12-16T10:19:04.744Z,8.50
2022-12-16T10:21:58.871Z,8.23
2022-12-16T10:25:01.166Z,7.70
2022-12-16T10:28:00.327Z,7.60
2022-12-16T10:30:48.470Z,7.20
2022-12-16T10:33:37.667Z,7.47
2022-12-16T10:36:32.203Z,7.47
2022-12-16T10:39:25.815Z,7.70
2022-12-16T10:42:14.422Z,7.93
2022-12-16T10:45:12.160Z,8.80
2022-12-16T10:47:59.748Z,8.23
2022-12-16T10:50:42.474Z,7.50
2022-12-16T10:53:34.624Z,8.17
2022-12-16T10:56:43.931Z,10.43
2022-12-16T10:59:30.259Z,10.90
2022-12-16T11:02:18.944Z,11.47
2022-12-16T11:05:07.808Z,12.37
2022-12-16T11:08:08.990Z,29.17
2022-12-16T11:10:58.233Z,20.53
2022-12-16T11:13:47.225Z,15.77
2022-12-16T11:16:38.352Z,14.90
2022-12-16T11:19:38.627Z,15.83
2022-12-16T11:22:34.578Z,16.10
2022-12-16T11:25:33.304Z,16.60
2022-12-16T11:28:24.872Z,14.80
2022-12-16T11:31:17.140Z,15.07
2022-12-16T11:34:10.091Z,15.33
2022-12-16T11:37:00.026Z,14.90
2022-12-16T11:39:51.531Z,19.27
2022-12-16T11:42:42.718Z,16.53
2022-12-16T11:45:35.119Z,14.67
2022-12-16T11:48:35.136Z,13.87
2022-12-16T11:51:23.989Z,15.23
2022-12-16T11:54:18.028Z,15.23
2022-12-16T11:57:06.651Z,15.13
2022-12-16T11:59:59.522Z,19.07
2022-12-16T12:02:55.849Z,16.97
2022-12-16T12:05:52.592Z,23.37
2022-12-16T12:08:51.503Z,20.07
2022-12-16T12:11:47.558Z,20.93
2022-12-16T12:14:59.515Z,23.60
2022-12-16T12:17:59.675Z,23.67
2022-12-16T12:21:04.766Z,20.77
2022-12-16T12:24:04.815Z,24.57
2022-12-16T12:26:53.791Z,23.93
2022-12-16T12:29:57.005Z,24.37
2022-12-16T12:33:00.071Z,29.70
2022-12-16T12:36:25.396Z,27.27
2022-12-16T12:39:26.400Z,32.63
2022-12-16T12:42:30.281Z,33.17
2022-12-16T12:45:42.315Z,34.10
2022-12-16T12:48:40.496Z,36.43
2022-12-16T12:51:36.962Z,41.63
2022-12-16T12:54:34.974Z,37.87
2022-12-16T12:57:23.331Z,40.10
2022-12-16T13:00:17.806Z,43.30
2022-12-16T13:03:17.740Z,45.43
2022-12-16T13:06:04.629Z,46.63
2022-12-16T13:09:11.970Z,51.87
2022-12-16T13:12:33.847Z,57.13
2022-12-16T13:15:23.859Z,52.17
2022-12-16T13:18:43.175Z,55.30
2022-12-16T13:22:04.235Z,57.30
2022-12-16T13:25:04.118Z,61.00
2022-12-16T13:28:10.292Z,59.17
2022-12-16T13:31:05.122Z,64.37
2022-12-16T13:33:53.858Z,65.00
2022-12-16T13:36:53.462Z,66.90
2022-12-16T13:39:51.517Z,71.33
2022-12-16T13:43:12.474Z,68.77
2022-12-16T13:46:02.371Z,71.20
2022-12-16T13:48:59.351Z,74.57
2022-12-16T13:52:20.610Z,86.37
2022-12-16T13:55:25.116Z,75.93
2022-12-16T13:58:22.174Z,70.53
2022-12-16T14:01:23.773Z,82.33
2022-12-16T14:04:12.608Z,78.67
2022-12-16T14:06:59.654Z,74.10
2022-12-16T14:09:55.967Z,77.07
2022-12-16T14:13:06.235Z,83.17
2022-12-16T14:16:07.423Z,78.60
2022-12-16T14:19:05.888Z,87.00
2022-12-16T14:22:03.373Z,81.53
2022-12-16T14:24:49.789Z,85.17
2022-12-16T14:27:39.851Z,85.40
2022-12-16T14:30:40.733Z,83.40
2022-12-16T14:33:42.337Z,81.17
2022-12-16T14:36:41.105Z,81.37
2022-12-16T14:39:40.306Z,80.80
2022-12-16T14:42:37.797Z,84.90
2022-12-16T14:45:38.947Z,77.27
2022-12-16T14:48:47.467Z,84.57
2022-12-16T14:51:44.550Z,76.93
2022-12-16T14:54:44.857Z,79.67
2022-12-16T14:57:36.017Z,79.77
2022-12-16T15:00:34.675Z,83.47
2022-12-16T15:03:32.779Z,81.83
2022-12-16T15:06:23.609Z,82.63
2022-12-16T15:09:14.085Z,82.50
2022-12-16T15:12:03.279Z,76.43
2022-12-16T15:14:54.591Z,72.87
2022-12-16T15:17:42.940Z,69.53
2022-12-16T15:20:39.278Z,70.90
2022-12-16T15:23:37.823Z,74.20
2022-12-16T15:26:24.893Z,75.73
2022-12-16T15:29:12.954Z,72.27
2022-12-16T15:32:03.173Z,70.60
2022-12-16T15:34:57.128Z,70.37
2022-12-16T15:37:49.571Z,69.20
2022-12-16T15:40:45.118Z,67.50
2022-12-16T15:43:45.566Z,69.33
2022-12-16T15:46:41.874Z,66.80
2022-12-16T15:49:40.319Z,71.70
2022-12-16T15:52:49.220Z,71.57
2022-12-16T15:55:49.371Z,71.10
2022-12-16T15:58:43.899Z,68.77
2022-12-16T16:01:34.082Z,72.33
2022-12-16T16:04:22.201Z,74.23
2022-12-16T16:07:10.810Z,68.93
2022-12-16T16:09:58.241Z,75.00
2022-12-16T16:12:44.829Z,68.30
2022-12-16T16:15:32.777Z,67.47
2022-12-16T16:18:22.655Z,64.63
2022-12-16T16:21:10.643Z,66.63
2022-12-16T16:23:57.142Z,64.93
2022-12-16T16:26:46.571Z,65.77
2022-12-16T16:29:32.862Z,68.73
2022-12-16T16:32:20.358Z,66.63
2022-12-16T16:35:09.333Z,69.20
2022-12-16T16:38:08.872Z,74.80
2022-12-16T16:40:57.429Z,73.23
2022-12-16T16:43:44.482Z,80.63
2022-12-16T16:46:55.105Z,77.23
2022-12-16T16:49:48.087Z,72.17
2022-12-16T16:52:37.624Z,81.90
2022-12-16T16:55:33.395Z,76.37
2022-12-16T16:58:19.809Z,72.17
2022-12-16T17:01:14.493Z,70.77
2022-12-16T17:04:01.400Z,68.77
2022-12-16T17:06:58.990Z,66.10
2022-12-16T17:09:45.024Z,66.10
2022-12-16T17:12:39.022Z,66.50
2022-12-16T17:15:39.683Z,68.53
2022-12-16T17:18:26.646Z,62.50
2022-12-16T17:21:13.157Z,63.40
2022-12-16T17:23:59.701Z,63.70
2022-12-16T17:26:46.269Z,64.80
2022-12-16T17:29:39.667Z,59.17
2022-12-16T17:32:26.645Z,62.97
2022-12-16T17:35:12.989Z,62.93
2022-12-16T17:37:59.495Z,66.03
2022-12-16T17:40:46.329Z,60.63
2022-12-16T17:43:33.086Z,64.87
2022-12-16T17:46:24.276Z,65.23
2022-12-16T17:49:11.232Z,62.77
2022-12-16T17:51:58.084Z,71.73
2022-12-16T17:54:44.603Z,64.23
2022-12-16T17:57:30.619Z,66.13
2022-12-16T18:00:17.053Z,66.27
2022-12-16T18:03:04.622Z,68.57
2022-12-16T18:05:51.100Z,67.27
2022-12-16T18:08:37.290Z,58.77
2022-12-16T18:11:23.533Z,65.50
2022-12-16T18:14:09.609Z,55.47
2022-12-16T18:16:55.706Z,57.10
2022-12-16T18:19:43.705Z,57.97
2022-12-16T18:22:29.871Z,55.93
2022-12-16T18:25:15.909Z,55.53
2022-12-16T18:28:01.997Z,49.57
2022-12-16T18:30:48.167Z,49.67
2022-12-16T18:33:34.443Z,50.60
2022-12-16T18:36:22.692Z,45.83
2022-12-16T18:39:08.884Z,51.23
2022-12-16T18:42:01.690Z,47.30
2022-12-16T18:44:48.139Z,45.17
2022-12-16T18:47:34.489Z,45.20
2022-12-16T18:50:27.212Z,51.73
2022-12-16T18:53:16.316Z,51.03
2022-12-16T18:56:02.308Z,47.60
2022-12-16T18:58:52.124Z,48.63
2022-12-16T19:01:38.655Z,45.97
2022-12-16T19:04:25.302Z,42.13
2022-12-16T19:07:11.702Z,45.53
2022-12-16T19:09:58.816Z,46.03
2022-12-16T19:12:44.834Z,45.37
2022-12-16T19:15:30.833Z,46.23
2022-12-16T19:18:16.788Z,49.20
2022-12-16T19:21:02.577Z,44.63
2022-12-16T19:23:45.058Z,49.37
2022-12-16T19:26:32.667Z,47.47
2022-12-16T19:29:19.024Z,45.23
2022-12-16T19:32:05.694Z,50.77
2022-12-16T19:34:52.134Z,52.87
2022-12-16T19:37:38.442Z,48.10
2022-12-16T19:40:30.595Z,50.33
2022-12-16T19:43:20.510Z,45.73
2022-12-16T19:46:16.472Z,53.60
2022-12-16T19:49:05.483Z,48.73
2022-12-16T19:51:56.245Z,53.43
2022-12-16T19:54:59.865Z,47.23
2022-12-16T19:57:47.578Z,47.53
2022-12-16T20:00:39.829Z,48.03
2022-12-16T20:03:47.990Z,49.80
2022-12-16T20:06:43.447Z,45.10
2022-12-16T20:09:29.571Z,50.60
2022-12-16T20:12:21.781Z,46.83
2022-12-16T20:15:16.559Z,45.00
2022-12-16T20:18:07.859Z,44.30
2022-12-16T20:20:56.995Z,43.57
2022-12-16T20:23:48.118Z,43.33
2022-12-16T20:26:35.910Z,46.97
2022-12-16T20:29:26.737Z,47.87
2022-12-16T20:32:17.321Z,52.47
2022-12-16T20:35:33.957Z,50.83
2022-12-16T20:38:20.440Z,52.50
2022-12-16T20:41:15.512Z,54.73
2022-12-16T20:44:01.891Z,56.37
2022-12-16T20:46:48.466Z,49.70
2022-12-16T20:49:36.330Z,57.03
2022-12-16T20:52:44.095Z,52.00
2022-12-16T20:55:32.663Z,50.07
2022-12-16T20:58:25.058Z,58.20
2022-12-16T21:01:18.391Z,53.37
2022-12-16T21:04:04.519Z,57.57
2022-12-16T21:06:50.501Z,52.07
2022-12-16T21:09:39.407Z,58.27
2022-12-16T21:12:25.790Z,79.17
2022-12-16T21:15:11.863Z,53.33
2022-12-16T21:17:58.154Z,51.57
2022-12-16T21:20:44.120Z,55.73
2022-12-16T21:23:31.578Z,56.20
2022-12-16T21:26:19.590Z,50.23
2022-12-16T21:29:06.131Z,50.13
2022-12-16T21:31:52.131Z,51.47
2022-12-16T21:34:39.678Z,53.90
2022-12-16T21:37:25.719Z,48.60
2022-12-16T21:40:23.172Z,52.00
2022-12-16T21:43:10.797Z,53.30
2022-12-16T21:45:57.223Z,55.50
2022-12-16T21:48:43.627Z,49.93
2022-12-16T21:51:30.157Z,51.27
2022-12-16T21:54:18.891Z,55.17
2022-12-16T21:57:04.985Z,56.93
2022-12-16T21:59:56.278Z,54.53
2022-12-16T22:02:42.565Z,54.83
2022-12-16T22:05:28.944Z,50.20
2022-12-16T22:08:15.300Z,58.57
2022-12-16T22:11:01.527Z,58.47
2022-12-16T22:13:50.025Z,51.67
2022-12-16T22:16:37.333Z,59.33
2022-12-16T22:19:23.977Z,49.00
2022-12-16T22:22:21.743Z,49.40
2022-12-16T22:25:14.255Z,53.70
2022-12-16T22:28:01.029Z,51.97
2022-12-16T22:30:47.568Z,49.43
2022-12-16T22:33:34.933Z,51.47
2022-12-16T22:36:22.526Z,48.30
2022-12-16T22:39:09.089Z,50.47
2022-12-16T22:41:56.024Z,54.33
2022-12-16T22:44:42.753Z,52.67
2022-12-16T22:47:29.013Z,49.70
2022-12-16T22:50:16.438Z,52.17
2022-12-16T22:53:02.489Z,52.07
2022-12-16T22:55:48.521Z,51.80
2022-12-16T22:58:34.900Z,48.63
2022-12-16T23:01:24.545Z,47.93
2022-12-16T23:04:10.610Z,48.57
2022-12-16T23:06:58.537Z,47.87
2022-12-16T23:09:44.912Z,45.53
2022-12-16T23:12:31.341Z,46.90
2022-12-16T23:15:17.579Z,45.27
2022-12-16T23:18:04.218Z,52.07
2022-12-16T23:20:51.880Z,47.63
2022-12-16T23:23:45.451Z,50.57
2022-12-16T23:26:31.455Z,52.47
2022-12-16T23:29:18.051Z,45.03
2022-12-16T23:32:04.451Z,50.10
2022-12-16T23:34:50.444Z,46.33
2022-12-16T23:37:37.146Z,48.20
2022-12-16T23:40:25.855Z,46.30
2022-12-16T23:43:13.253Z,45.17
2022-12-16T23:46:01.596Z,46.50
2022-12-16T23:48:47.721Z,47.30
2022-12-16T23:51:33.895Z,47.73
2022-12-16T23:54:22.209Z,47.33
2022-12-16T23:57:09.620Z,46.43
2022-12-16T23:59:56.501Z,45.63
